createdAt,value
2023-05-14T00:00:08.371Z,17.73
2023-05-14T00:04:09.783Z,15.10
2023-05-14T00:08:11.266Z,18.08
2023-05-14T00:12:12.761Z,14.82
2023-05-14T00:16:14.229Z,15.30
2023-05-14T00:20:16.300Z,14.10
2023-05-14T00:24:17.785Z,14.15
2023-05-14T00:28:19.221Z,13.68
2023-05-14T00:32:21.062Z,17.88
2023-05-14T00:36:22.527Z,13.45
2023-05-14T00:40:27.808Z,14.30
2023-05-14T00:44:29.235Z,12.05
2023-05-14T00:48:30.793Z,11.43
2023-05-14T00:52:33.266Z,10.95
2023-05-14T00:56:35.428Z,14.40
2023-05-14T01:00:38.232Z,11.25
2023-05-14T01:04:40.515Z,17.90
2023-05-14T01:08:59.581Z,13.02
2023-05-14T01:13:22.934Z,11.55
2023-05-14T01:17:28.276Z,11.82
2023-05-14T01:21:42.712Z,13.25
2023-05-14T01:25:44.246Z,12.05
2023-05-14T01:29:53.370Z,20.00
2023-05-14T01:33:57.594Z,10.43
2023-05-14T01:38:04.707Z,11.80
2023-05-14T01:42:07.765Z,11.88
2023-05-14T01:46:09.551Z,12.23
2023-05-14T01:50:11.107Z,10.60
2023-05-14T01:54:12.500Z,10.77
2023-05-14T01:58:13.907Z,10.32
2023-05-14T02:02:15.345Z,13.20
2023-05-14T02:06:16.848Z,13.05
2023-05-14T02:10:18.400Z,12.95
2023-05-14T02:14:19.910Z,11.02
2023-05-14T02:18:21.360Z,10.32
2023-05-14T02:22:22.777Z,10.80
2023-05-14T02:26:24.254Z,10.23
2023-05-14T02:30:25.895Z,9.90
2023-05-14T02:34:27.434Z,10.60
2023-05-14T02:38:28.883Z,10.77
2023-05-14T02:42:30.384Z,10.80
2023-05-14T02:46:32.400Z,9.45
2023-05-14T02:50:33.923Z,10.45
2023-05-14T02:54:35.481Z,10.90
2023-05-14T02:58:36.924Z,11.32
2023-05-14T03:02:47.652Z,10.55
2023-05-14T03:06:49.664Z,9.38
2023-05-14T03:10:51.237Z,14.20
2023-05-14T03:14:52.800Z,12.77
2023-05-14T03:18:54.265Z,9.25
2023-05-14T03:22:56.143Z,10.88
2023-05-14T03:26:57.602Z,10.10
2023-05-14T03:30:59.170Z,8.88
2023-05-14T03:35:00.710Z,10.45
2023-05-14T03:39:02.906Z,8.63
2023-05-14T03:43:04.379Z,11.80
2023-05-14T03:47:05.844Z,10.05
2023-05-14T03:51:07.301Z,9.00
2023-05-14T03:55:09.310Z,8.32
2023-05-14T03:59:10.720Z,9.68
2023-05-14T04:03:12.313Z,8.63
2023-05-14T04:07:13.843Z,10.55
2023-05-14T04:11:15.411Z,14.23
2023-05-14T04:15:18.394Z,9.85
2023-05-14T04:19:19.922Z,13.45
2023-05-14T04:23:21.761Z,11.82
2023-05-14T04:27:23.393Z,11.55
2023-05-14T04:31:24.856Z,11.98
2023-05-14T04:35:26.363Z,10.95
2023-05-14T04:39:27.814Z,11.27
2023-05-14T04:43:29.245Z,11.02
2023-05-14T04:47:31.381Z,8.77
2023-05-14T04:51:32.882Z,11.57
2023-05-14T04:55:34.300Z,9.93
2023-05-14T04:59:35.815Z,10.90
2023-05-14T05:03:37.266Z,11.48
2023-05-14T05:07:38.731Z,7.28
2023-05-14T05:11:40.360Z,8.00
2023-05-14T05:15:41.831Z,9.05
2023-05-14T05:19:44.566Z,8.88
2023-05-14T05:23:46.189Z,9.43
2023-05-14T05:27:47.628Z,7.22
2023-05-14T05:31:49.550Z,8.93
2023-05-14T05:35:52.414Z,8.38
2023-05-14T05:39:54.196Z,7.28
2023-05-14T05:43:55.892Z,7.88
2023-05-14T05:47:57.378Z,7.68
2023-05-14T05:51:58.927Z,10.85
2023-05-14T05:56:00.360Z,10.60
2023-05-14T06:00:09.267Z,10.52
2023-05-14T06:04:10.765Z,7.55
2023-05-14T06:08:12.174Z,7.25
2023-05-14T06:12:13.596Z,6.70
2023-05-14T06:16:15.328Z,13.82
2023-05-14T06:20:17.082Z,10.95
2023-05-14T06:24:20.037Z,8.35
2023-05-14T06:28:21.552Z,10.52
2023-05-14T06:32:23.055Z,8.63
2023-05-14T06:36:24.566Z,7.97
2023-05-14T06:40:26.224Z,8.15
2023-05-14T06:44:28.955Z,8.30
2023-05-14T06:48:31.131Z,11.88
2023-05-14T06:52:32.976Z,8.63
2023-05-14T06:56:34.636Z,7.35
2023-05-14T07:00:36.130Z,8.30
2023-05-14T07:04:37.606Z,9.48
2023-05-14T07:08:39.150Z,6.88
2023-05-14T07:12:40.634Z,11.60
2023-05-14T07:16:42.773Z,7.85
2023-05-14T07:20:44.319Z,6.82
2023-05-14T07:24:45.819Z,8.35
2023-05-14T07:28:47.280Z,8.40
2023-05-14T07:32:48.757Z,7.35
2023-05-14T07:36:50.294Z,5.10
2023-05-14T07:40:51.772Z,6.93
2023-05-14T07:44:53.253Z,10.82
2023-05-14T07:48:54.768Z,8.07
2023-05-14T07:52:56.248Z,10.85
2023-05-14T07:56:57.678Z,9.05
2023-05-14T08:00:59.144Z,5.68
2023-05-14T08:05:01.464Z,8.70
2023-05-14T08:09:05.270Z,5.55
2023-05-14T08:13:06.802Z,5.90
2023-05-14T08:17:08.493Z,4.85
2023-05-14T08:21:10.047Z,6.10
2023-05-14T08:25:11.548Z,5.30
2023-05-14T08:29:14.794Z,7.20
2023-05-14T08:33:18.267Z,4.45
2023-05-14T08:37:19.662Z,5.35
2023-05-14T08:41:21.709Z,10.13
2023-05-14T08:45:29.174Z,11.43
2023-05-14T08:49:41.406Z,5.43
2023-05-14T08:53:43.483Z,9.15
2023-05-14T08:57:45.242Z,5.10
2023-05-14T09:01:48.536Z,6.00
2023-05-14T09:05:52.041Z,6.10
2023-05-14T09:09:54.035Z,4.35
2023-05-14T09:13:55.737Z,5.28
2023-05-14T09:17:57.819Z,4.57
2023-05-14T09:21:59.423Z,4.05
2023-05-14T09:26:05.531Z,6.63
2023-05-14T09:30:13.799Z,5.80
2023-05-14T09:34:27.814Z,5.27
2023-05-14T09:38:32.954Z,5.05
2023-05-14T09:42:34.565Z,4.90
2023-05-14T09:46:36.204Z,6.35
2023-05-14T09:50:45.725Z,4.47
2023-05-14T09:54:47.456Z,5.90
2023-05-14T09:58:49.553Z,6.18
2023-05-14T10:02:53.202Z,9.60
2023-05-14T10:06:56.118Z,9.82
2023-05-14T10:10:59.209Z,3.35
2023-05-14T10:16:05.336Z,20.67
2023-05-14T10:20:10.425Z,5.97
2023-05-14T10:24:12.931Z,5.60
2023-05-14T10:28:14.543Z,7.82
2023-05-14T10:32:16.441Z,9.25
2023-05-14T10:36:18.612Z,9.82
2023-05-14T10:40:23.398Z,7.93
2023-05-14T10:44:25.197Z,4.65
2023-05-14T10:48:27.100Z,5.85
2023-05-14T10:52:29.669Z,6.03
2023-05-14T10:56:31.075Z,3.60
2023-05-14T11:00:35.983Z,4.38
2023-05-14T11:04:37.457Z,4.18
2023-05-14T11:08:39.543Z,3.75
2023-05-14T11:12:43.593Z,5.28
2023-05-14T11:16:46.269Z,7.53
2023-05-14T11:20:47.919Z,6.95
2023-05-14T11:24:50.314Z,8.95
2023-05-14T11:28:52.899Z,3.97
2023-05-14T11:32:55.804Z,5.68
2023-05-14T11:36:57.447Z,9.50
2023-05-14T11:40:59.676Z,8.73
2023-05-14T11:45:01.325Z,3.63
2023-05-14T11:49:06.704Z,6.43
2023-05-14T11:53:08.309Z,5.20
2023-05-14T11:57:17.922Z,4.30
2023-05-14T12:01:19.501Z,3.88
2023-05-14T12:05:21.049Z,3.83
2023-05-14T12:09:23.290Z,5.82
2023-05-14T12:13:29.129Z,4.95
2023-05-14T12:17:32.788Z,3.28
2023-05-14T12:21:34.865Z,4.45
2023-05-14T12:25:38.234Z,4.30
2023-05-14T12:29:39.725Z,8.18
2023-05-14T12:33:41.350Z,5.03
2023-05-14T12:37:42.934Z,6.03
2023-05-14T12:41:44.492Z,8.40
2023-05-14T12:45:46.151Z,4.88
2023-05-14T12:49:47.944Z,5.40
2023-05-14T12:53:54.117Z,4.57
2023-05-14T12:57:55.591Z,4.72
2023-05-14T13:01:57.053Z,10.57
2023-05-14T13:05:58.992Z,5.50
2023-05-14T13:10:00.633Z,3.92
2023-05-14T13:14:02.345Z,5.53
2023-05-14T13:18:04.684Z,4.00
2023-05-14T13:22:06.541Z,4.03
2023-05-14T13:26:08.213Z,6.78
2023-05-14T13:30:10.072Z,5.15
2023-05-14T13:34:13.044Z,5.00
2023-05-14T13:38:14.479Z,6.32
2023-05-14T13:42:15.948Z,4.65
2023-05-14T13:46:17.454Z,5.28
2023-05-14T13:50:18.964Z,5.40
2023-05-14T13:54:20.464Z,3.63
2023-05-14T13:58:24.133Z,4.53
2023-05-14T14:02:25.679Z,5.85
2023-05-14T14:06:27.537Z,4.53
2023-05-14T14:10:29.186Z,5.05
2023-05-14T14:14:30.624Z,6.18
2023-05-14T14:18:32.535Z,9.35
2023-05-14T14:22:34.149Z,4.85
2023-05-14T14:26:35.593Z,4.28
2023-05-14T14:30:37.048Z,4.63
2023-05-14T14:34:38.748Z,4.22
2023-05-14T14:38:40.227Z,7.72
2023-05-14T14:42:43.098Z,5.43
2023-05-14T14:46:44.592Z,5.07
2023-05-14T14:50:46.161Z,4.45
2023-05-14T14:54:47.700Z,4.93
2023-05-14T14:58:49.190Z,5.53
2023-05-14T15:02:50.888Z,4.57
2023-05-14T15:06:52.373Z,3.78
2023-05-14T15:10:55.291Z,3.17
2023-05-14T15:14:56.749Z,2.83
2023-05-14T15:18:58.275Z,7.22
2023-05-14T15:22:59.886Z,3.40
2023-05-14T15:27:01.345Z,3.28
2023-05-14T15:31:03.088Z,8.80
2023-05-14T15:35:05.154Z,5.03
2023-05-14T15:39:10.104Z,5.15
2023-05-14T15:43:11.595Z,7.18
2023-05-14T15:47:13.080Z,3.08
2023-05-14T15:51:14.732Z,6.00
2023-05-14T15:55:16.223Z,3.33
2023-05-14T15:59:18.153Z,2.63
2023-05-14T16:03:19.627Z,3.65
2023-05-14T16:07:21.384Z,4.35
2023-05-14T16:11:22.852Z,3.63
2023-05-14T16:15:24.329Z,5.63
2023-05-14T16:19:25.974Z,3.28
2023-05-14T16:23:48.130Z,2.83
2023-05-14T16:27:49.701Z,3.92
2023-05-14T16:31:51.250Z,2.95
2023-05-14T16:35:53.010Z,3.15
2023-05-14T16:39:54.874Z,4.85
2023-05-14T16:43:56.483Z,4.85
2023-05-14T16:47:58.250Z,10.75
2023-05-14T16:51:59.694Z,3.65
2023-05-14T16:56:01.320Z,3.65
2023-05-14T17:00:06.039Z,6.55
2023-05-14T17:04:08.212Z,5.00
2023-05-14T17:08:10.346Z,6.05
2023-05-14T17:12:13.497Z,4.55
2023-05-14T17:16:15.003Z,3.78
2023-05-14T17:20:17.024Z,5.15
2023-05-14T17:24:18.798Z,4.95
2023-05-14T17:28:20.531Z,5.18
2023-05-14T17:32:22.069Z,4.97
2023-05-14T17:36:24.020Z,4.20
2023-05-14T17:40:25.676Z,4.00
2023-05-14T17:44:27.107Z,5.00
2023-05-14T17:48:28.515Z,4.85
2023-05-14T17:52:29.956Z,4.05
2023-05-14T17:56:31.812Z,6.45
2023-05-14T18:00:33.333Z,5.43
2023-05-14T18:04:34.835Z,10.05
2023-05-14T18:08:36.281Z,4.78
2023-05-14T18:12:37.914Z,4.93
2023-05-14T18:16:39.686Z,9.52
2023-05-14T18:20:41.136Z,8.32
2023-05-14T18:24:44.198Z,5.15
2023-05-14T18:28:45.866Z,7.32
2023-05-14T18:32:47.471Z,11.20
2023-05-14T18:36:50.015Z,6.25
2023-05-14T18:40:51.468Z,5.55
2023-05-14T18:44:52.990Z,8.57
2023-05-14T18:48:56.397Z,6.55
2023-05-14T18:52:57.893Z,5.85
2023-05-14T18:57:00.644Z,5.28
2023-05-14T19:01:02.131Z,13.52
2023-05-14T19:05:03.749Z,7.55
2023-05-14T19:09:05.353Z,4.38
2023-05-14T19:13:06.899Z,6.53
2023-05-14T19:17:08.447Z,6.40
2023-05-14T19:21:09.939Z,5.75
2023-05-14T19:25:11.480Z,5.55
2023-05-14T19:29:12.982Z,7.45
2023-05-14T19:33:14.487Z,18.17
2023-05-14T19:37:16.057Z,11.57
2023-05-14T19:41:17.526Z,8.75
2023-05-14T19:45:19.027Z,7.55
2023-05-14T19:49:20.485Z,8.07
2023-05-14T19:53:21.890Z,12.52
2023-05-14T19:57:23.352Z,9.35
2023-05-14T20:01:25.028Z,6.63
2023-05-14T20:05:26.819Z,8.40
2023-05-14T20:09:28.319Z,27.90
2023-05-14T20:13:31.947Z,10.52
2023-05-14T20:17:33.492Z,8.65
2023-05-14T20:21:34.941Z,15.85
2023-05-14T20:25:36.530Z,15.95
2023-05-14T20:29:37.992Z,11.10
2023-05-14T20:33:39.554Z,9.40
2023-05-14T20:37:41.318Z,8.38
2023-05-14T20:41:42.849Z,12.65
2023-05-14T20:45:44.318Z,11.13
2023-05-14T20:49:48.804Z,13.02
2023-05-14T20:53:50.246Z,11.82
2023-05-14T20:57:51.792Z,14.43
2023-05-14T21:01:53.298Z,11.45
2023-05-14T21:05:56.633Z,11.88
2023-05-14T21:09:59.217Z,11.73
2023-05-14T21:14:00.876Z,9.98
2023-05-14T21:18:02.913Z,8.48
2023-05-14T21:22:04.493Z,8.80
2023-05-14T21:26:06.189Z,10.63
2023-05-14T21:30:08.277Z,9.55
2023-05-14T21:34:09.775Z,10.73
2023-05-14T21:38:11.730Z,8.23
2023-05-14T21:42:13.316Z,9.98
2023-05-14T21:46:14.775Z,10.30
2023-05-14T21:50:16.279Z,9.23
2023-05-14T21:54:17.910Z,14.07
2023-05-14T21:58:19.297Z,11.98
2023-05-14T22:02:20.935Z,11.52
2023-05-14T22:06:22.422Z,11.82
2023-05-14T22:10:23.953Z,11.25
2023-05-14T22:14:27.216Z,9.38
2023-05-14T22:18:28.695Z,10.63
2023-05-14T22:22:30.186Z,10.68
2023-05-14T22:26:31.686Z,12.18
2023-05-14T22:30:33.134Z,13.55
2023-05-14T22:34:34.674Z,11.82
2023-05-14T22:38:36.218Z,11.20
2023-05-14T22:42:37.692Z,12.43
2023-05-14T22:46:39.248Z,11.05
2023-05-14T22:50:40.792Z,9.88
2023-05-14T22:54:42.391Z,10.07
2023-05-14T22:58:43.835Z,9.73
2023-05-14T23:02:45.369Z,11.10
2023-05-14T23:06:46.793Z,15.25
2023-05-14T23:10:48.209Z,8.50
2023-05-14T23:14:49.641Z,9.35
2023-05-14T23:18:51.342Z,9.65
2023-05-14T23:22:54.025Z,9.82
2023-05-14T23:26:55.851Z,9.85
2023-05-14T23:30:57.367Z,11.75
2023-05-14T23:34:58.809Z,9.73
2023-05-14T23:39:00.293Z,12.50
2023-05-14T23:43:01.765Z,11.93
2023-05-14T23:47:03.261Z,10.35
2023-05-14T23:51:04.719Z,8.82
2023-05-14T23:55:06.631Z,12.55
2023-05-14T23:59:08.168Z,12.20
